Garden City, Alabama
Current Conditions -  °F | °C
As of 7:15 PM on Saturday 22 Nov 2014 (Local Time) from KCMD Reporting Station
Overcast Overcast  
Wind Chill: 58°   Ceiling: 3300
Heat Index: 58°   Visibility: 10mi
Dew Point: 45°   Wind: 9mph
Humidity: 62%   Direction: 130°SE
Pressure: 30.16"   Gusts: NA
Location:  34.01°N, 86.75°W
Report Text: KCMD 230115Z AUTO 13008KT 10SM OVC033 15/07 A3016 RMK AO2 T01460074
Loading
Personal Weather Stations






























Interactive Weather Map New forecast layout! Learn more

10-Day Weather Forecast

Advertisements
Track Severe Weather on mobile